createdAt,value
2024-01-03T00:00:22.486Z,1.13
2024-01-03T00:02:50.468Z,0.55
2024-01-03T00:05:33.404Z,0.75
2024-01-03T00:08:01.060Z,0.95
2024-01-03T00:10:48.181Z,0.73
2024-01-03T00:13:30.982Z,0.68
2024-01-03T00:16:08.863Z,0.80
2024-01-03T00:18:40.603Z,1.10
2024-01-03T00:21:11.036Z,0.77
2024-01-03T00:23:45.471Z,0.82
2024-01-03T00:26:14.767Z,1.00
2024-01-03T00:28:43.183Z,0.50
2024-01-03T00:31:12.579Z,0.68
2024-01-03T00:33:43.297Z,0.55
2024-01-03T00:36:16.763Z,0.57
2024-01-03T00:38:45.681Z,0.50
2024-01-03T00:41:14.112Z,0.40
2024-01-03T00:46:11.919Z,0.70
2024-01-03T00:48:41.918Z,0.60
2024-01-03T00:51:10.067Z,0.57
2024-01-03T00:53:37.909Z,0.70
2024-01-03T00:56:06.012Z,1.00
2024-01-03T00:58:34.366Z,0.60
2024-01-03T01:01:02.427Z,0.95
2024-01-03T01:03:30.061Z,2.28
2024-01-03T01:05:58.165Z,1.05
2024-01-03T01:08:25.934Z,1.05
2024-01-03T01:10:53.591Z,1.55
2024-01-03T01:13:21.140Z,1.08
2024-01-03T01:15:48.717Z,1.10
2024-01-03T01:18:16.589Z,1.00
2024-01-03T01:20:44.728Z,1.08
2024-01-03T01:23:12.960Z,1.27
2024-01-03T01:25:40.633Z,0.88
2024-01-03T01:28:09.398Z,1.00
2024-01-03T01:30:37.211Z,1.00
2024-01-03T01:33:05.575Z,1.15
2024-01-03T01:35:33.405Z,1.48
2024-01-03T01:38:04.446Z,1.20
2024-01-03T01:40:32.169Z,1.23
2024-01-03T01:43:02.540Z,1.10
2024-01-03T01:45:30.136Z,1.13
2024-01-03T01:47:58.294Z,0.65
2024-01-03T01:50:26.697Z,1.00
2024-01-03T01:52:54.688Z,1.13
2024-01-03T01:55:22.821Z,1.50
2024-01-03T01:57:52.847Z,2.00
2024-01-03T02:00:20.629Z,1.20
2024-01-03T02:02:50.033Z,3.67
2024-01-03T02:05:18.806Z,1.35
2024-01-03T02:07:46.805Z,1.27
2024-01-03T02:10:14.618Z,1.33
2024-01-03T02:12:42.180Z,1.42
2024-01-03T02:15:10.149Z,1.63
2024-01-03T02:17:39.959Z,2.55
2024-01-03T02:20:08.204Z,1.95
2024-01-03T02:22:35.852Z,1.38
2024-01-03T02:25:05.498Z,1.52
2024-01-03T02:30:00.961Z,1.20
2024-01-03T02:32:28.607Z,1.90
2024-01-03T02:34:56.279Z,1.85
2024-01-03T02:37:25.392Z,2.10
2024-01-03T02:39:52.993Z,0.90
2024-01-03T02:42:20.608Z,1.45
2024-01-03T02:44:48.185Z,2.03
2024-01-03T02:47:15.834Z,2.17
2024-01-03T02:49:43.439Z,2.03
2024-01-03T02:52:11.024Z,2.03
2024-01-03T02:54:38.596Z,1.50
2024-01-03T02:57:06.213Z,1.58
2024-01-03T02:59:34.884Z,1.20
2024-01-03T03:02:02.495Z,2.67
2024-01-03T03:04:30.088Z,1.60
2024-01-03T03:06:57.674Z,1.23
2024-01-03T03:09:25.346Z,1.60
2024-01-03T03:11:53.100Z,1.75
2024-01-03T03:14:21.639Z,3.10
2024-01-03T03:16:49.272Z,1.80
2024-01-03T03:19:17.028Z,1.80
2024-01-03T03:21:47.275Z,1.73
2024-01-03T03:24:14.980Z,1.40
2024-01-03T03:26:42.580Z,1.83
2024-01-03T03:29:10.283Z,2.15
2024-01-03T03:31:37.856Z,1.45
2024-01-03T03:34:05.658Z,2.22
2024-01-03T03:36:33.301Z,1.40
2024-01-03T03:39:00.903Z,0.93
2024-01-03T03:41:28.566Z,2.30
2024-01-03T03:43:56.799Z,2.20
2024-01-03T03:46:24.392Z,1.25
2024-01-03T03:48:52.186Z,1.13
2024-01-03T03:51:20.057Z,2.55
2024-01-03T03:53:47.668Z,1.50
2024-01-03T03:56:33.433Z,1.95
2024-01-03T03:59:01.030Z,1.50
2024-01-03T04:01:28.575Z,1.23
2024-01-03T04:03:56.140Z,1.60
2024-01-03T04:06:23.751Z,2.72
2024-01-03T04:08:51.888Z,1.30
2024-01-03T04:11:19.562Z,2.22
2024-01-03T04:13:47.166Z,1.73
2024-01-03T04:16:14.827Z,1.58
2024-01-03T04:18:42.595Z,2.58
2024-01-03T04:21:10.762Z,2.28
2024-01-03T04:23:38.388Z,2.70
2024-01-03T04:26:06.740Z,3.55
2024-01-03T04:28:34.301Z,2.10
2024-01-03T04:31:01.922Z,2.75
2024-01-03T04:33:29.725Z,1.80
2024-01-03T04:35:57.369Z,2.97
2024-01-03T04:38:25.403Z,1.90
2024-01-03T04:40:52.970Z,1.48
2024-01-03T04:43:20.534Z,2.22
2024-01-03T04:45:48.829Z,2.28
2024-01-03T04:48:24.176Z,1.80
2024-01-03T04:50:51.975Z,1.70
2024-01-03T04:53:19.536Z,2.10
2024-01-03T04:55:47.267Z,1.63
2024-01-03T04:58:14.820Z,2.00
2024-01-03T05:00:42.389Z,1.80
2024-01-03T05:03:10.065Z,2.65
2024-01-03T05:05:37.781Z,1.52
2024-01-03T05:08:06.167Z,2.80
2024-01-03T05:10:33.837Z,1.80
2024-01-03T05:13:01.333Z,1.33
2024-01-03T05:15:28.873Z,1.95
2024-01-03T05:17:56.714Z,2.03
2024-01-03T05:20:24.413Z,1.73
2024-01-03T05:22:52.047Z,1.95
2024-01-03T05:25:19.701Z,3.25
2024-01-03T05:27:47.897Z,2.67
2024-01-03T05:30:15.636Z,2.10
2024-01-03T05:32:43.262Z,1.30
2024-01-03T05:35:11.074Z,2.00
2024-01-03T05:37:38.604Z,1.00
2024-01-03T05:40:06.813Z,1.67
2024-01-03T05:42:34.942Z,1.65
2024-01-03T05:45:02.868Z,2.20
2024-01-03T05:47:30.871Z,2.30
2024-01-03T05:49:59.485Z,2.40
2024-01-03T05:52:27.133Z,2.58
2024-01-03T05:54:56.255Z,2.22
2024-01-03T05:57:24.045Z,2.38
2024-01-03T05:59:51.703Z,1.42
2024-01-03T06:02:19.333Z,2.50
2024-01-03T06:04:49.015Z,2.15
2024-01-03T06:07:16.978Z,2.10
2024-01-03T06:09:46.521Z,2.10
2024-01-03T06:12:15.732Z,2.47
2024-01-03T06:14:43.655Z,2.75
2024-01-03T06:17:11.277Z,2.20
2024-01-03T06:19:38.980Z,2.45
2024-01-03T06:22:06.628Z,5.65
2024-01-03T06:24:34.145Z,4.40
2024-01-03T06:27:01.918Z,2.38
2024-01-03T06:29:29.578Z,2.20
2024-01-03T06:31:57.420Z,1.88
2024-01-03T06:34:25.094Z,2.97
2024-01-03T06:36:53.007Z,2.70
2024-01-03T06:39:20.509Z,2.85
2024-01-03T06:41:48.100Z,2.25
2024-01-03T06:44:15.684Z,2.80
2024-01-03T06:46:45.312Z,3.28
2024-01-03T06:49:13.773Z,2.70
2024-01-03T06:51:41.445Z,2.60
2024-01-03T06:54:09.230Z,2.55
2024-01-03T06:56:36.944Z,2.30
2024-01-03T06:59:04.540Z,2.05
2024-01-03T07:01:32.743Z,2.58
2024-01-03T07:04:01.900Z,2.25
2024-01-03T07:06:29.755Z,2.05
2024-01-03T07:08:57.609Z,2.17
2024-01-03T07:11:25.298Z,2.20
2024-01-03T07:13:52.914Z,2.22
2024-01-03T07:16:20.605Z,1.90
2024-01-03T07:18:48.341Z,2.38
2024-01-03T07:21:16.189Z,2.00
2024-01-03T07:23:44.011Z,2.67
2024-01-03T07:26:11.632Z,2.10
2024-01-03T07:28:39.192Z,2.00
2024-01-03T07:31:06.916Z,1.98
2024-01-03T07:33:34.616Z,2.28
2024-01-03T07:36:02.491Z,2.10
2024-01-03T07:38:30.108Z,1.83
2024-01-03T07:40:57.884Z,2.55
2024-01-03T07:43:25.588Z,2.80
2024-01-03T07:45:53.213Z,2.03
2024-01-03T07:48:20.929Z,2.20
2024-01-03T07:50:48.710Z,2.10
2024-01-03T07:53:16.350Z,2.45
2024-01-03T07:55:43.999Z,3.15
2024-01-03T07:58:11.767Z,2.60
2024-01-03T08:00:39.372Z,2.70
2024-01-03T08:03:06.998Z,3.42
2024-01-03T08:05:34.713Z,3.08
2024-01-03T08:08:02.384Z,3.47
2024-01-03T08:10:30.022Z,3.40
2024-01-03T08:12:57.810Z,2.75
2024-01-03T08:15:25.418Z,3.00
2024-01-03T08:17:53.254Z,3.25
2024-01-03T08:20:21.053Z,3.40
2024-01-03T08:22:48.780Z,4.00
2024-01-03T08:25:16.637Z,2.78
2024-01-03T08:27:44.299Z,3.15
2024-01-03T08:30:12.312Z,3.33
2024-01-03T08:32:41.974Z,3.15
2024-01-03T08:35:10.223Z,2.38
2024-01-03T08:37:37.874Z,2.72
2024-01-03T08:40:07.018Z,2.92
2024-01-03T08:42:34.859Z,3.00
2024-01-03T08:45:02.695Z,2.60
2024-01-03T08:47:30.312Z,2.70
2024-01-03T08:50:00.986Z,3.10
2024-01-03T08:52:28.670Z,2.50
2024-01-03T08:54:56.304Z,2.63
2024-01-03T08:57:24.078Z,2.10
2024-01-03T08:59:51.724Z,2.15
2024-01-03T09:02:20.074Z,2.30
2024-01-03T09:04:47.674Z,2.03
2024-01-03T09:07:15.273Z,2.60
2024-01-03T09:09:42.895Z,2.28
2024-01-03T09:12:10.654Z,2.63
2024-01-03T09:14:38.475Z,2.10
2024-01-03T09:17:06.119Z,1.55
2024-01-03T09:19:33.845Z,1.92
2024-01-03T09:22:02.471Z,1.58
2024-01-03T09:24:31.254Z,2.08
2024-01-03T09:26:59.177Z,1.88
2024-01-03T09:29:26.873Z,1.80
2024-01-03T09:31:54.643Z,2.10
2024-01-03T09:34:22.446Z,1.83
2024-01-03T09:36:50.162Z,3.38
2024-01-03T09:39:17.684Z,2.67
2024-01-03T09:41:46.425Z,2.22
2024-01-03T09:44:14.763Z,2.33
2024-01-03T09:46:43.815Z,2.80
2024-01-03T09:49:11.613Z,2.30
2024-01-03T09:51:41.479Z,2.85
2024-01-03T09:54:10.099Z,2.78
2024-01-03T09:56:40.308Z,3.13
2024-01-03T09:59:09.938Z,2.90
2024-01-03T10:01:39.236Z,2.63
2024-01-03T10:04:08.248Z,2.35
2024-01-03T10:06:53.266Z,2.90
2024-01-03T10:09:21.577Z,2.80
2024-01-03T10:11:52.786Z,2.53
2024-01-03T10:14:23.158Z,3.22
2024-01-03T10:16:51.146Z,2.75
2024-01-03T10:19:20.808Z,2.30
2024-01-03T10:21:54.469Z,2.25
2024-01-03T10:24:27.817Z,2.50
2024-01-03T10:26:56.683Z,2.72
2024-01-03T10:29:24.749Z,1.90
2024-01-03T10:31:52.901Z,1.85
2024-01-03T10:34:26.454Z,1.65
2024-01-03T10:36:55.658Z,1.52
2024-01-03T10:39:24.333Z,1.10
2024-01-03T10:41:54.294Z,1.73
2024-01-03T10:46:56.433Z,2.30
2024-01-03T10:49:24.811Z,1.40
2024-01-03T10:52:03.883Z,1.30
2024-01-03T10:54:42.207Z,2.03
2024-01-03T10:57:13.007Z,1.60
2024-01-03T10:59:56.826Z,1.98
2024-01-03T11:02:36.420Z,2.28
2024-01-03T11:05:16.759Z,1.63
2024-01-03T11:07:59.496Z,1.52
2024-01-03T11:10:54.976Z,2.10
2024-01-03T11:13:30.842Z,2.50
2024-01-03T11:15:59.989Z,3.03
2024-01-03T11:18:43.192Z,3.42
2024-01-03T11:21:28.129Z,1.92
2024-01-03T11:23:55.997Z,2.70
2024-01-03T11:26:56.170Z,2.40
2024-01-03T11:29:42.679Z,1.90
2024-01-03T11:32:37.000Z,1.83
2024-01-03T11:35:09.826Z,1.92
2024-01-03T11:37:39.638Z,2.28
2024-01-03T11:40:09.962Z,3.03
2024-01-03T11:42:42.857Z,2.50
2024-01-03T11:45:18.614Z,2.53
2024-01-03T11:47:48.052Z,2.65
2024-01-03T11:50:19.117Z,2.20
2024-01-03T11:52:49.267Z,2.30
2024-01-03T11:55:19.431Z,2.33
2024-01-03T11:57:48.593Z,2.00
2024-01-03T12:00:25.469Z,2.08
2024-01-03T12:02:57.612Z,2.53
2024-01-03T12:05:28.384Z,2.80
2024-01-03T12:07:58.043Z,3.17
2024-01-03T12:10:26.949Z,2.55
2024-01-03T12:12:55.424Z,2.10
2024-01-03T12:18:07.984Z,2.42
2024-01-03T12:20:35.776Z,2.40
2024-01-03T12:23:11.893Z,1.50
2024-01-03T12:25:40.891Z,2.28
2024-01-03T12:28:09.541Z,1.58
2024-01-03T12:30:37.377Z,1.80
2024-01-03T12:33:13.438Z,2.08
2024-01-03T12:35:42.051Z,2.15
2024-01-03T12:38:09.788Z,2.55
2024-01-03T12:40:37.552Z,2.03
2024-01-03T12:43:05.222Z,1.10
2024-01-03T12:45:32.783Z,2.10
2024-01-03T12:48:00.848Z,1.35
2024-01-03T12:50:28.566Z,1.85
2024-01-03T12:52:56.966Z,1.67
2024-01-03T12:55:24.513Z,1.92
2024-01-03T12:57:52.367Z,3.00
2024-01-03T13:00:20.105Z,1.90
2024-01-03T13:02:47.775Z,2.13
2024-01-03T13:05:15.784Z,2.00
2024-01-03T13:07:44.010Z,3.15
2024-01-03T13:10:11.707Z,2.28
2024-01-03T13:12:40.402Z,2.60
2024-01-03T13:15:10.101Z,2.65
2024-01-03T13:17:38.030Z,2.70
2024-01-03T13:20:06.367Z,2.65
2024-01-03T13:22:34.045Z,2.40
2024-01-03T13:25:01.623Z,2.40
2024-01-03T13:27:29.167Z,2.75
2024-01-03T13:29:56.833Z,2.55
2024-01-03T13:32:24.706Z,3.22
2024-01-03T13:34:52.707Z,2.15
2024-01-03T13:37:20.673Z,1.90
2024-01-03T13:39:48.471Z,1.85
2024-01-03T13:42:16.243Z,2.03
2024-01-03T13:44:44.949Z,1.90
2024-01-03T13:47:13.105Z,2.63
2024-01-03T13:49:40.804Z,2.90
2024-01-03T13:52:08.956Z,3.60
2024-01-03T13:54:36.504Z,4.85
2024-01-03T13:57:04.470Z,4.90
2024-01-03T13:59:32.227Z,4.10
2024-01-03T14:02:00.106Z,2.58
2024-01-03T14:04:28.600Z,2.70
2024-01-03T14:06:56.381Z,3.20
2024-01-03T14:09:24.078Z,2.60
2024-01-03T14:11:51.761Z,2.75
2024-01-03T14:14:19.304Z,3.50
2024-01-03T14:16:47.333Z,2.97
2024-01-03T14:19:16.068Z,2.38
2024-01-03T14:21:51.485Z,3.22
2024-01-03T14:24:19.718Z,14.45
2024-01-03T14:26:47.634Z,14.32
2024-01-03T14:29:15.317Z,16.92
2024-01-03T14:31:44.488Z,4.05
2024-01-03T14:34:12.945Z,3.13
2024-01-03T14:36:40.777Z,3.20
2024-01-03T14:39:09.619Z,3.17
2024-01-03T14:41:38.056Z,2.90
2024-01-03T14:44:06.445Z,2.58
2024-01-03T14:46:34.587Z,2.28
2024-01-03T14:49:03.098Z,3.35
2024-01-03T14:51:30.848Z,3.20
2024-01-03T14:53:59.949Z,3.65
2024-01-03T14:56:29.185Z,3.92
2024-01-03T14:58:58.190Z,3.72
2024-01-03T15:01:27.936Z,3.35
2024-01-03T15:03:56.045Z,4.45
2024-01-03T15:06:24.268Z,4.78
2024-01-03T15:08:54.339Z,7.60
2024-01-03T15:11:21.971Z,5.70
2024-01-03T15:13:49.454Z,10.20
2024-01-03T15:16:17.116Z,4.40
2024-01-03T15:18:45.038Z,6.00
2024-01-03T15:21:12.888Z,6.53
2024-01-03T15:23:40.467Z,5.90
2024-01-03T15:26:08.635Z,7.88
2024-01-03T15:28:36.816Z,5.93
2024-01-03T15:31:04.674Z,5.90
2024-01-03T15:33:32.778Z,5.80
2024-01-03T15:36:00.617Z,5.28
2024-01-03T15:38:28.345Z,5.90
2024-01-03T15:40:55.967Z,7.20
2024-01-03T15:43:23.629Z,6.55
2024-01-03T15:45:51.664Z,7.93
2024-01-03T15:48:19.843Z,7.68
2024-01-03T15:50:47.970Z,12.90
2024-01-03T15:53:15.521Z,11.35
2024-01-03T15:55:43.114Z,18.77
2024-01-03T15:58:10.684Z,10.98
2024-01-03T16:00:38.898Z,14.10
2024-01-03T16:03:07.175Z,11.68
2024-01-03T16:05:35.257Z,13.00
2024-01-03T16:08:03.016Z,11.18
2024-01-03T16:10:31.627Z,11.63
2024-01-03T16:13:00.233Z,11.65
2024-01-03T16:15:28.950Z,8.45
2024-01-03T16:17:57.624Z,8.63
2024-01-03T16:20:25.981Z,8.75
2024-01-03T16:22:53.894Z,8.52
2024-01-03T16:25:24.120Z,8.73
2024-01-03T16:27:51.937Z,9.23
2024-01-03T16:30:19.733Z,9.90
2024-01-03T16:32:48.948Z,8.93
2024-01-03T16:35:17.270Z,10.30
2024-01-03T16:37:46.575Z,9.27
2024-01-03T16:40:14.688Z,10.35
2024-01-03T16:42:42.585Z,11.85
2024-01-03T16:45:10.723Z,10.95
2024-01-03T16:47:40.042Z,10.27
2024-01-03T16:50:09.283Z,11.55
2024-01-03T16:52:42.462Z,12.40
2024-01-03T16:55:10.114Z,11.48
2024-01-03T16:57:37.702Z,11.80
2024-01-03T17:00:06.146Z,11.23
2024-01-03T17:02:33.794Z,12.52
2024-01-03T17:05:01.620Z,12.00
2024-01-03T17:07:29.522Z,12.32
2024-01-03T17:10:04.011Z,11.30
2024-01-03T17:12:31.699Z,11.38
2024-01-03T17:15:00.591Z,11.10
2024-01-03T17:17:28.936Z,11.60
2024-01-03T17:19:56.607Z,13.02
2024-01-03T17:22:24.440Z,12.75
2024-01-03T17:24:52.193Z,11.73
2024-01-03T17:27:19.904Z,11.75
2024-01-03T17:29:47.970Z,12.25
2024-01-03T17:32:15.585Z,9.05
2024-01-03T17:34:43.334Z,10.68
2024-01-03T17:37:11.224Z,8.43
2024-01-03T17:39:38.790Z,10.45
2024-01-03T17:42:08.165Z,9.88
2024-01-03T17:44:36.884Z,9.95
2024-01-03T17:47:04.898Z,9.10
2024-01-03T17:49:32.946Z,9.05
2024-01-03T17:52:00.665Z,8.98
2024-01-03T17:54:30.217Z,9.57
2024-01-03T17:56:57.967Z,8.63
2024-01-03T17:59:25.576Z,9.27
2024-01-03T18:01:53.233Z,9.70
2024-01-03T18:04:21.096Z,10.30
2024-01-03T18:06:48.649Z,10.07
2024-01-03T18:09:16.346Z,9.55
2024-01-03T18:11:43.952Z,9.18
2024-01-03T18:14:11.606Z,10.20
2024-01-03T18:16:39.226Z,11.02
2024-01-03T18:19:08.878Z,11.48
2024-01-03T18:21:36.568Z,11.27
2024-01-03T18:24:10.094Z,11.68
2024-01-03T18:26:38.031Z,11.00
2024-01-03T18:29:06.330Z,12.07
2024-01-03T18:31:33.968Z,12.35
2024-01-03T18:34:01.848Z,13.15
2024-01-03T18:36:29.465Z,12.48
2024-01-03T18:38:58.940Z,12.63
2024-01-03T18:41:26.629Z,12.90
2024-01-03T18:43:54.312Z,13.20
2024-01-03T18:46:21.942Z,13.57
2024-01-03T18:48:49.716Z,15.15
2024-01-03T18:51:17.714Z,15.70
2024-01-03T18:53:45.593Z,15.68
2024-01-03T18:56:13.419Z,14.18
2024-01-03T18:58:41.446Z,10.35
2024-01-03T19:01:09.333Z,9.63
2024-01-03T19:03:37.023Z,11.63
2024-01-03T19:06:04.805Z,8.98
2024-01-03T19:08:32.386Z,8.23
2024-01-03T19:10:59.987Z,8.25
2024-01-03T19:13:27.624Z,8.05
2024-01-03T19:15:55.235Z,7.57
2024-01-03T19:18:22.950Z,7.43
2024-01-03T19:20:50.696Z,7.20
2024-01-03T19:23:18.348Z,6.57
2024-01-03T19:25:45.987Z,6.32
2024-01-03T19:28:13.692Z,7.32
2024-01-03T19:30:42.280Z,7.18
2024-01-03T19:33:10.148Z,7.25
2024-01-03T19:35:38.060Z,7.55
2024-01-03T19:38:05.765Z,9.98
2024-01-03T19:40:40.691Z,7.97
2024-01-03T19:43:08.357Z,8.68
2024-01-03T19:45:36.018Z,9.48
2024-01-03T19:48:04.923Z,9.50
2024-01-03T19:50:33.641Z,8.40
2024-01-03T19:53:01.252Z,10.05
2024-01-03T19:55:28.799Z,9.50
2024-01-03T19:57:56.536Z,8.98
2024-01-03T20:00:24.658Z,9.13
2024-01-03T20:02:52.571Z,10.25
2024-01-03T20:05:22.309Z,11.07
2024-01-03T20:10:18.091Z,11.30
2024-01-03T20:12:45.964Z,11.10
2024-01-03T20:15:14.234Z,10.23
2024-01-03T20:17:42.372Z,11.68
2024-01-03T20:20:10.655Z,9.02
2024-01-03T20:22:41.423Z,9.52
2024-01-03T20:25:09.844Z,8.18
2024-01-03T20:27:46.549Z,11.15
2024-01-03T20:30:14.771Z,10.02
2024-01-03T20:32:43.201Z,8.10
2024-01-03T20:35:12.655Z,8.52
2024-01-03T20:37:43.099Z,8.10
2024-01-03T20:40:11.487Z,8.40
2024-01-03T20:42:41.517Z,7.82
2024-01-03T20:45:10.477Z,8.13
2024-01-03T20:47:38.382Z,6.53
2024-01-03T20:50:06.756Z,6.35
2024-01-03T20:52:34.407Z,6.25
2024-01-03T20:55:02.362Z,6.85
2024-01-03T20:57:31.195Z,7.03
2024-01-03T20:59:58.936Z,5.95
2024-01-03T21:02:26.794Z,7.28
2024-01-03T21:04:57.611Z,6.63
2024-01-03T21:07:25.257Z,4.90
2024-01-03T21:09:52.878Z,5.50
2024-01-03T21:12:20.741Z,5.63
2024-01-03T21:14:48.454Z,4.72
2024-01-03T21:17:16.347Z,5.35
2024-01-03T21:19:44.143Z,5.25
2024-01-03T21:22:13.288Z,4.03
2024-01-03T21:24:42.998Z,3.80
2024-01-03T21:27:44.323Z,2.75
2024-01-03T21:29:58.402Z,2.70
2024-01-03T21:32:26.238Z,2.85
2024-01-03T21:34:54.063Z,2.90
2024-01-03T21:37:21.810Z,2.45
2024-01-03T21:39:49.464Z,3.03
2024-01-03T21:42:17.100Z,2.55
2024-01-03T21:44:45.625Z,3.25
2024-01-03T21:47:15.554Z,2.97
2024-01-03T21:49:43.811Z,3.00
2024-01-03T21:52:11.469Z,3.40
2024-01-03T21:54:39.134Z,3.13
2024-01-03T21:57:07.241Z,3.72
2024-01-03T21:59:35.079Z,2.67
2024-01-03T22:02:02.893Z,2.60
2024-01-03T22:04:32.899Z,2.80
2024-01-03T22:09:28.231Z,2.88
2024-01-03T22:11:58.918Z,2.60
2024-01-03T22:14:31.994Z,2.88
2024-01-03T22:17:00.359Z,2.40
2024-01-03T22:19:33.425Z,2.15
2024-01-03T22:22:01.131Z,3.22
2024-01-03T22:24:28.732Z,2.33
2024-01-03T22:26:56.486Z,2.35
2024-01-03T22:29:24.048Z,2.30
2024-01-03T22:31:51.621Z,2.42
2024-01-03T22:34:19.484Z,2.40
2024-01-03T22:36:47.646Z,2.60
2024-01-03T22:39:16.155Z,3.20
2024-01-03T22:41:43.908Z,2.17
2024-01-03T22:44:11.502Z,3.17
2024-01-03T22:46:43.752Z,2.78
2024-01-03T22:49:12.544Z,4.32
2024-01-03T22:51:41.410Z,2.70
2024-01-03T22:54:09.432Z,2.47
2024-01-03T22:56:38.226Z,3.55
2024-01-03T22:59:06.661Z,2.53
2024-01-03T23:01:34.394Z,2.55
2024-01-03T23:04:02.223Z,2.33
2024-01-03T23:06:30.014Z,2.00
2024-01-03T23:08:57.977Z,2.50
2024-01-03T23:11:25.853Z,2.22
2024-01-03T23:13:53.726Z,1.67
2024-01-03T23:16:23.842Z,1.80
2024-01-03T23:18:51.752Z,1.75
2024-01-03T23:21:22.034Z,1.90
2024-01-03T23:23:49.765Z,1.80
2024-01-03T23:26:18.550Z,1.90
2024-01-03T23:28:49.618Z,1.58
2024-01-03T23:31:18.148Z,1.90
2024-01-03T23:33:48.665Z,1.42
2024-01-03T23:36:16.920Z,1.50
2024-01-03T23:38:44.635Z,1.80
2024-01-03T23:41:17.097Z,1.33
2024-01-03T23:43:47.537Z,1.38
2024-01-03T23:46:16.032Z,1.40
2024-01-03T23:48:44.446Z,1.38
2024-01-03T23:51:18.699Z,1.25
2024-01-03T23:53:47.272Z,1.40
2024-01-03T23:56:22.060Z,1.30
2024-01-03T23:58:50.084Z,1.25
